createdAt,value
2023-04-17T00:00:21.691Z,101648.78
2023-04-17T00:02:48.961Z,101646.00
2023-04-17T00:05:16.913Z,101649.63
2023-04-17T00:07:44.769Z,101652.31
2023-04-17T00:10:12.209Z,101652.19
2023-04-17T00:12:39.445Z,101650.66
2023-04-17T00:15:07.077Z,101660.38
2023-04-17T00:17:34.348Z,101658.50
2023-04-17T00:20:01.595Z,101654.97
2023-04-17T00:22:29.059Z,101648.94
2023-04-17T00:24:56.225Z,101650.56
2023-04-17T00:27:23.470Z,101652.38
2023-04-17T00:29:50.629Z,101648.94
2023-04-17T00:32:17.801Z,101646.28
2023-04-17T00:34:45.048Z,101649.81
2023-04-17T00:37:12.203Z,101648.94
2023-04-17T00:39:39.361Z,101653.34
2023-04-17T00:42:06.583Z,101651.53
2023-04-17T00:44:33.826Z,101649.81
2023-04-17T00:47:01.452Z,101652.56
2023-04-17T00:49:29.377Z,101653.41
2023-04-17T00:51:56.681Z,101654.28
2023-04-17T00:54:24.057Z,101656.19
2023-04-17T00:56:52.518Z,101653.50
2023-04-17T00:59:19.711Z,101666.78
2023-04-17T01:01:46.953Z,101655.22
2023-04-17T01:04:14.416Z,101650.66
2023-04-17T01:06:41.931Z,101656.97
2023-04-17T01:09:09.291Z,101648.06
2023-04-17T01:11:37.000Z,101660.56
2023-04-17T01:14:04.204Z,101652.56
2023-04-17T01:16:31.456Z,101655.22
2023-04-17T01:18:59.376Z,101651.69
2023-04-17T01:21:27.512Z,101657.03
2023-04-17T01:23:54.960Z,101655.16
2023-04-17T01:26:25.723Z,101656.19
2023-04-17T01:28:59.751Z,101653.50
2023-04-17T01:31:28.835Z,101653.59
2023-04-17T01:33:56.124Z,101656.97
2023-04-17T01:36:23.339Z,101652.66
2023-04-17T01:38:50.633Z,101651.63
2023-04-17T01:41:17.855Z,101654.38
2023-04-17T01:43:46.511Z,101658.84
2023-04-17T01:46:14.080Z,101662.31
2023-04-17T01:48:41.502Z,101657.91
2023-04-17T01:51:08.805Z,101658.00
2023-04-17T01:53:38.527Z,101656.97
2023-04-17T01:56:05.893Z,101656.97
2023-04-17T01:58:33.118Z,101661.53
2023-04-17T02:01:00.533Z,101668.59
2023-04-17T02:03:28.001Z,101668.59
2023-04-17T02:05:55.645Z,101662.50
2023-04-17T02:08:22.979Z,101663.41
2023-04-17T02:10:50.407Z,101666.94
2023-04-17T02:13:17.594Z,101671.38
2023-04-17T02:15:44.852Z,101675.84
2023-04-17T02:18:12.174Z,101672.22
2023-04-17T02:20:39.508Z,101671.25
2023-04-17T02:23:07.405Z,101671.38
2023-04-17T02:25:35.025Z,101674.13
2023-04-17T02:28:02.266Z,101677.56
2023-04-17T02:30:29.492Z,101680.31
2023-04-17T02:32:57.214Z,101679.56
2023-04-17T02:35:26.660Z,101670.69
2023-04-17T02:37:54.206Z,101676.97
2023-04-17T02:40:21.416Z,101681.38
2023-04-17T02:42:48.596Z,101678.72
2023-04-17T02:45:16.063Z,101678.78
2023-04-17T02:47:43.395Z,101679.63
2023-04-17T02:50:11.270Z,101686.81
2023-04-17T02:52:38.496Z,101682.31
2023-04-17T02:55:06.874Z,101675.25
2023-04-17T02:57:34.094Z,101677.84
2023-04-17T03:00:01.593Z,101684.22
2023-04-17T03:02:30.685Z,101684.97
2023-04-17T03:04:58.094Z,101688.63
2023-04-17T03:07:27.488Z,101685.94
2023-04-17T03:09:57.469Z,101684.97
2023-04-17T03:12:24.908Z,101687.84
2023-04-17T03:14:52.401Z,101685.09
2023-04-17T03:17:20.792Z,101683.28
2023-04-17T03:19:48.276Z,101688.72
2023-04-17T03:22:15.523Z,101694.75
2023-04-17T03:24:42.685Z,101698.53
2023-04-17T03:27:09.849Z,101701.19
2023-04-17T03:29:37.071Z,101700.25
2023-04-17T03:32:04.380Z,101700.34
2023-04-17T03:34:31.773Z,101714.56
2023-04-17T03:36:59.180Z,101711.88
2023-04-17T03:39:26.988Z,101709.31
2023-04-17T03:41:54.168Z,101709.31
2023-04-17T03:44:21.656Z,101711.88
2023-04-17T03:46:48.835Z,101720.97
2023-04-17T03:49:16.030Z,101713.81
2023-04-17T03:51:43.244Z,101717.34
2023-04-17T03:54:10.624Z,101716.38
2023-04-17T03:56:37.797Z,101727.16
2023-04-17T03:59:05.529Z,101723.63
2023-04-17T04:01:32.832Z,101727.06
2023-04-17T04:04:00.542Z,101724.50
2023-04-17T04:06:29.870Z,101720.00
2023-04-17T04:08:57.282Z,101723.47
2023-04-17T04:11:24.450Z,101732.41
2023-04-17T04:13:51.597Z,101738.78
2023-04-17T04:16:18.875Z,101735.25
2023-04-17T04:18:46.127Z,101735.38
2023-04-17T04:21:13.335Z,101733.44
2023-04-17T04:23:41.272Z,101741.47
2023-04-17T04:26:08.524Z,101738.78
2023-04-17T04:28:35.707Z,101737.84
2023-04-17T04:31:04.652Z,101742.34
2023-04-17T04:33:31.841Z,101744.06
2023-04-17T04:36:01.197Z,101748.53
2023-04-17T04:38:32.890Z,101745.03
2023-04-17T04:41:06.221Z,101746.81
2023-04-17T04:43:33.919Z,101751.22
2023-04-17T04:46:01.223Z,101751.03
2023-04-17T04:48:28.896Z,101750.19
2023-04-17T04:50:59.217Z,101756.38
2023-04-17T04:53:26.377Z,101757.94
2023-04-17T04:55:53.599Z,101761.72
2023-04-17T04:58:20.932Z,101755.59
2023-04-17T05:00:48.177Z,101756.63
2023-04-17T05:03:15.774Z,101758.09
2023-04-17T05:05:44.254Z,101770.97
2023-04-17T05:08:11.405Z,101772.16
2023-04-17T05:10:38.622Z,101770.09
2023-04-17T05:13:05.842Z,101771.22
2023-04-17T05:15:32.997Z,101773.00
2023-04-17T05:18:00.262Z,101778.88
2023-04-17T05:20:27.488Z,101780.50
2023-04-17T05:22:54.674Z,101779.22
2023-04-17T05:25:22.576Z,101787.09
2023-04-17T05:27:49.767Z,101787.34
2023-04-17T05:30:17.150Z,101787.50
2023-04-17T05:32:44.360Z,101791.81
2023-04-17T05:35:11.664Z,101786.53
2023-04-17T05:37:38.819Z,101791.03
2023-04-17T05:40:07.134Z,101786.72
2023-04-17T05:42:35.081Z,101792.94
2023-04-17T05:45:02.374Z,101792.84
2023-04-17T05:47:29.654Z,101803.63
2023-04-17T05:49:58.473Z,101802.69
2023-04-17T05:52:25.978Z,101806.81
2023-04-17T05:54:53.165Z,101805.88
2023-04-17T05:57:20.373Z,101806.88
2023-04-17T05:59:48.985Z,101807.22
2023-04-17T06:02:16.998Z,101805.69
2023-04-17T06:04:45.047Z,101807.03
2023-04-17T06:07:12.455Z,101811.84
2023-04-17T06:09:40.829Z,101813.31
2023-04-17T06:12:14.731Z,101810.34
2023-04-17T06:14:41.990Z,101815.34
2023-04-17T06:17:09.322Z,101813.16
2023-04-17T06:19:36.812Z,101817.66
2023-04-17T06:22:03.968Z,101809.53
2023-04-17T06:24:31.135Z,101824.53
2023-04-17T06:26:58.377Z,101818.03
2023-04-17T06:29:25.719Z,101819.00
2023-04-17T06:31:53.066Z,101826.78
2023-04-17T06:34:20.778Z,101829.25
2023-04-17T06:36:48.095Z,101832.78
2023-04-17T06:39:15.338Z,101825.53
2023-04-17T06:41:42.484Z,101828.88
2023-04-17T06:44:09.845Z,101832.25
2023-04-17T06:46:37.270Z,101831.66
2023-04-17T06:49:04.476Z,101831.47
2023-04-17T06:51:31.989Z,101828.59
2023-04-17T06:53:59.396Z,101835.13
2023-04-17T06:56:26.667Z,101839.44
2023-04-17T06:58:54.492Z,101837.63
2023-04-17T07:01:21.733Z,101847.84
2023-04-17T07:03:49.134Z,101838.19
2023-04-17T07:06:17.076Z,101846.56
2023-04-17T07:08:44.477Z,101848.88
2023-04-17T07:11:11.673Z,101846.88
2023-04-17T07:13:38.841Z,101858.44
2023-04-17T07:16:06.838Z,101857.19
2023-04-17T07:18:34.086Z,101862.50
2023-04-17T07:21:01.893Z,101859.81
2023-04-17T07:23:29.052Z,101857.22
2023-04-17T07:25:56.221Z,101866.88
2023-04-17T07:28:24.526Z,101872.06
2023-04-17T07:30:54.866Z,101878.06
2023-04-17T07:33:22.186Z,101869.56
2023-04-17T07:35:49.350Z,101875.50
2023-04-17T07:38:17.020Z,101875.41
2023-04-17T07:40:44.215Z,101881.72
2023-04-17T07:43:11.379Z,101880.31
2023-04-17T07:45:41.167Z,101881.91
2023-04-17T07:48:09.320Z,101887.94
2023-04-17T07:50:36.807Z,101889.09
2023-04-17T07:53:04.020Z,101891.44
2023-04-17T07:55:31.203Z,101881.41
2023-04-17T07:58:01.591Z,101895.34
2023-04-17T08:00:29.331Z,101892.09
2023-04-17T08:02:56.789Z,101906.94
2023-04-17T08:05:24.695Z,101902.59
2023-04-17T08:07:52.116Z,101905.41
2023-04-17T08:10:19.744Z,101903.59
2023-04-17T08:12:46.998Z,101906.75
2023-04-17T08:15:14.475Z,101919.88
2023-04-17T08:17:41.651Z,101911.69
2023-04-17T08:20:10.779Z,101911.59
2023-04-17T08:22:42.770Z,101918.78
2023-04-17T08:25:10.759Z,101925.94
2023-04-17T08:27:40.286Z,101925.75
2023-04-17T08:30:11.204Z,101925.84
2023-04-17T08:32:44.872Z,101930.09
2023-04-17T08:35:14.237Z,101931.50
2023-04-17T08:37:48.214Z,101928.63
2023-04-17T08:40:17.080Z,101932.75
2023-04-17T08:42:44.846Z,101936.78
2023-04-17T08:45:13.468Z,101937.47
2023-04-17T08:47:41.680Z,101931.06
2023-04-17T08:50:11.543Z,101928.84
2023-04-17T08:52:46.517Z,101937.97
2023-04-17T08:55:16.693Z,101936.47
2023-04-17T08:58:04.293Z,101937.88
2023-04-17T09:00:36.413Z,101938.91
2023-04-17T09:03:07.503Z,101931.00
2023-04-17T09:05:36.887Z,101935.38
2023-04-17T09:08:15.761Z,101935.66
2023-04-17T09:10:50.752Z,101940.84
2023-04-17T09:13:19.743Z,101940.53
2023-04-17T09:16:03.033Z,101945.50
2023-04-17T09:18:31.295Z,101946.66
2023-04-17T09:21:02.810Z,101945.31
2023-04-17T09:23:31.689Z,101949.59
2023-04-17T09:26:09.800Z,101941.72
2023-04-17T09:28:39.557Z,101934.16
2023-04-17T09:31:28.164Z,101930.34
2023-04-17T09:34:00.263Z,101926.97
2023-04-17T09:36:32.508Z,101939.41
2023-04-17T09:39:01.350Z,101937.88
2023-04-17T09:41:30.805Z,101932.59
2023-04-17T09:44:05.318Z,101932.59
2023-04-17T09:46:42.138Z,101931.56
2023-04-17T09:49:21.254Z,101941.41
2023-04-17T09:51:49.335Z,101931.56
2023-04-17T09:54:17.792Z,101929.91
2023-04-17T09:56:45.083Z,101927.41
2023-04-17T09:59:12.801Z,101929.16
2023-04-17T10:01:40.771Z,101941.59
2023-04-17T10:04:08.282Z,101936.34
2023-04-17T10:06:36.617Z,101938.06
2023-04-17T10:09:04.686Z,101938.13
2023-04-17T10:11:42.693Z,101937.19
2023-04-17T10:14:28.096Z,101941.69
2023-04-17T10:16:55.538Z,101939.75
2023-04-17T10:19:31.248Z,101936.84
2023-04-17T10:22:19.896Z,101927.56
2023-04-17T10:24:51.989Z,101931.66
2023-04-17T10:27:25.811Z,101933.19
2023-04-17T10:30:04.207Z,101922.75
2023-04-17T10:32:34.174Z,101933.91
2023-04-17T10:35:16.551Z,101930.44
2023-04-17T10:37:52.581Z,101929.53
2023-04-17T10:40:23.373Z,101925.88
2023-04-17T10:43:12.412Z,101927.91
2023-04-17T10:45:59.500Z,101915.47
2023-04-17T10:48:35.281Z,101917.34
2023-04-17T10:51:21.281Z,101916.22
2023-04-17T10:53:49.854Z,101913.56
2023-04-17T10:56:31.547Z,101910.72
2023-04-17T10:59:03.300Z,101910.34
2023-04-17T11:01:32.602Z,101914.00
2023-04-17T11:04:00.243Z,101914.00
2023-04-17T11:06:40.575Z,101921.25
2023-04-17T11:09:10.561Z,101913.34
2023-04-17T11:11:44.623Z,101923.75
2023-04-17T11:14:14.784Z,101919.78
2023-04-17T11:16:43.132Z,101923.00
2023-04-17T11:19:13.118Z,101918.44
2023-04-17T11:21:44.207Z,101922.81
2023-04-17T11:24:12.045Z,101917.28
2023-04-17T11:26:46.264Z,101914.31
2023-04-17T11:29:17.017Z,101918.41
2023-04-17T11:31:45.551Z,101915.75
2023-04-17T11:34:13.319Z,101908.59
2023-04-17T11:36:40.648Z,101917.09
2023-04-17T11:39:09.045Z,101922.34
2023-04-17T11:41:37.648Z,101919.59
2023-04-17T11:44:09.822Z,101919.41
2023-04-17T11:46:37.415Z,101922.44
2023-04-17T11:49:08.081Z,101922.63
2023-04-17T11:51:35.598Z,101918.31
2023-04-17T11:54:03.086Z,101926.47
2023-04-17T11:56:30.971Z,101918.25
2023-04-17T11:58:59.329Z,101925.53
2023-04-17T12:01:27.455Z,101930.50
2023-04-17T12:03:59.269Z,101934.78
2023-04-17T12:06:37.304Z,101931.03
2023-04-17T12:09:06.398Z,101927.13
2023-04-17T12:11:33.514Z,101930.59
2023-04-17T12:14:01.900Z,101928.63
2023-04-17T12:16:29.707Z,101935.81
2023-04-17T12:18:57.384Z,101930.44
2023-04-17T12:21:24.752Z,101930.34
2023-04-17T12:23:52.439Z,101930.44
2023-04-17T12:26:19.777Z,101933.28
2023-04-17T12:28:47.148Z,101929.75
2023-04-17T12:31:14.361Z,101935.97
2023-04-17T12:33:41.613Z,101938.63
2023-04-17T12:36:09.186Z,101937.00
2023-04-17T12:38:36.501Z,101938.81
2023-04-17T12:41:03.809Z,101937.66
2023-04-17T12:43:33.449Z,101944.84
2023-04-17T12:46:01.496Z,101943.50
2023-04-17T12:48:30.767Z,101932.22
2023-04-17T12:50:59.462Z,101942.06
2023-04-17T12:53:26.646Z,101942.44
2023-04-17T12:55:53.816Z,101942.84
2023-04-17T12:58:21.058Z,101933.94
2023-04-17T13:00:48.262Z,101938.06
2023-04-17T13:03:15.619Z,101940.75
2023-04-17T13:05:43.039Z,101939.28
2023-04-17T13:08:14.822Z,101942.56
2023-04-17T13:10:42.589Z,101950.50
2023-04-17T13:13:09.808Z,101951.34
2023-04-17T13:15:37.359Z,101946.00
2023-04-17T13:18:04.795Z,101949.06
2023-04-17T13:20:32.150Z,101950.66
2023-04-17T13:22:59.391Z,101960.50
2023-04-17T13:25:26.725Z,101957.84
2023-04-17T13:27:55.149Z,101962.53
2023-04-17T13:30:22.879Z,101971.66
2023-04-17T13:32:50.413Z,101972.59
2023-04-17T13:35:17.845Z,101971.47
2023-04-17T13:37:45.233Z,101980.69
2023-04-17T13:40:12.716Z,101972.59
2023-04-17T13:42:40.311Z,101976.25
2023-04-17T13:45:08.077Z,101977.75
2023-04-17T13:47:35.412Z,101985.25
2023-04-17T13:50:02.737Z,101981.63
2023-04-17T13:52:29.911Z,101985.50
2023-04-17T13:54:57.416Z,101979.78
2023-04-17T13:57:24.836Z,101986.34
2023-04-17T13:59:52.356Z,101986.53
2023-04-17T14:02:19.733Z,101978.53
2023-04-17T14:04:47.381Z,101976.34
2023-04-17T14:07:15.475Z,101984.59
2023-04-17T14:09:42.918Z,101992.28
2023-04-17T14:12:10.337Z,101983.13
2023-04-17T14:14:37.586Z,101978.44
2023-04-17T14:17:04.819Z,101976.47
2023-04-17T14:19:32.102Z,101980.84
2023-04-17T14:21:59.293Z,101976.34
2023-04-17T14:24:26.462Z,101977.22
2023-04-17T14:26:53.898Z,101989.72
2023-04-17T14:29:21.505Z,101981.56
2023-04-17T14:31:48.765Z,101987.78
2023-04-17T14:34:16.132Z,101990.25
2023-04-17T14:36:43.750Z,101979.63
2023-04-17T14:39:11.324Z,101987.84
2023-04-17T14:41:38.790Z,101995.50
2023-04-17T14:44:06.490Z,101982.19
2023-04-17T14:46:33.740Z,101993.09
2023-04-17T14:49:00.993Z,101987.16
2023-04-17T14:51:28.386Z,101991.88
2023-04-17T14:53:55.688Z,101990.03
2023-04-17T14:56:22.974Z,101989.09
2023-04-17T14:58:50.284Z,101990.03
2023-04-17T15:01:17.538Z,101994.25
2023-04-17T15:03:47.759Z,101992.53
2023-04-17T15:06:16.446Z,102003.06
2023-04-17T15:08:46.505Z,101999.59
2023-04-17T15:11:21.407Z,102003.25
2023-04-17T15:13:49.470Z,102004.31
2023-04-17T15:16:17.436Z,101998.75
2023-04-17T15:18:48.747Z,102001.25
2023-04-17T15:21:23.279Z,102001.16
2023-04-17T15:23:53.573Z,101996.66
2023-04-17T15:26:26.610Z,101993.00
2023-04-17T15:28:57.543Z,101993.78
2023-04-17T15:31:25.989Z,101998.28
2023-04-17T15:33:53.368Z,101990.22
2023-04-17T15:36:30.293Z,101998.66
2023-04-17T15:38:59.511Z,102003.22
2023-04-17T15:41:27.811Z,101998.06
2023-04-17T15:43:55.137Z,102003.41
2023-04-17T15:46:22.392Z,102004.38
2023-04-17T15:49:04.608Z,101998.84
2023-04-17T15:51:34.570Z,101999.81
2023-04-17T15:54:01.763Z,102002.56
2023-04-17T15:56:28.964Z,102002.66
2023-04-17T15:58:56.446Z,102004.38
2023-04-17T16:01:24.028Z,102001.88
2023-04-17T16:03:51.542Z,102006.75
2023-04-17T16:06:20.429Z,102004.84
2023-04-17T16:08:48.001Z,102004.84
2023-04-17T16:11:15.318Z,102007.59
2023-04-17T16:13:42.708Z,102010.28
2023-04-17T16:16:10.930Z,102007.22
2023-04-17T16:18:38.742Z,102015.25
2023-04-17T16:21:08.914Z,102011.06
2023-04-17T16:23:38.883Z,102008.38
2023-04-17T16:26:07.264Z,102017.78
2023-04-17T16:28:35.136Z,102010.69
2023-04-17T16:31:02.420Z,102013.94
2023-04-17T16:33:29.706Z,102012.13
2023-04-17T16:35:57.412Z,102013.00
2023-04-17T16:38:25.435Z,102021.72
2023-04-17T16:40:56.785Z,102026.16
2023-04-17T16:43:23.983Z,102022.63
2023-04-17T16:45:51.175Z,102012.66
2023-04-17T16:48:18.603Z,102016.75
2023-04-17T16:50:45.842Z,102025.19
2023-04-17T16:53:13.684Z,102015.63
2023-04-17T16:55:41.708Z,102023.47
2023-04-17T16:58:08.935Z,102021.28
2023-04-17T17:00:36.286Z,102020.03
2023-04-17T17:03:03.838Z,102026.47
2023-04-17T17:05:31.303Z,102022.59
2023-04-17T17:07:58.537Z,102029.41
2023-04-17T17:10:25.732Z,102028.53
2023-04-17T17:12:53.113Z,102034.94
2023-04-17T17:15:21.431Z,102026.34
2023-04-17T17:17:48.988Z,102041.09
2023-04-17T17:20:16.454Z,102036.28
2023-04-17T17:22:43.665Z,102033.72
2023-04-17T17:25:11.238Z,102036.47
2023-04-17T17:27:38.461Z,102036.59
2023-04-17T17:30:06.405Z,102034.75
2023-04-17T17:32:33.796Z,102038.41
2023-04-17T17:35:01.080Z,102042.13
2023-04-17T17:37:28.446Z,102047.19
2023-04-17T17:39:56.274Z,102040.31
2023-04-17T17:42:24.198Z,102043.25
2023-04-17T17:44:51.776Z,102043.16
2023-04-17T17:47:19.171Z,102051.97
2023-04-17T17:49:47.751Z,102045.84
2023-04-17T17:52:14.982Z,102052.94
2023-04-17T17:54:42.741Z,102049.31
2023-04-17T17:57:10.284Z,102054.66
2023-04-17T17:59:37.534Z,102056.66
2023-04-17T18:02:05.214Z,102052.06
2023-04-17T18:04:32.691Z,102066.22
2023-04-17T18:07:00.285Z,102051.84
2023-04-17T18:09:27.516Z,102061.06
2023-04-17T18:11:54.755Z,102048.44
2023-04-17T18:14:22.114Z,102061.47
2023-04-17T18:16:49.296Z,102057.72
2023-04-17T18:19:16.516Z,102055.06
2023-04-17T18:21:44.950Z,102059.47
2023-04-17T18:24:14.053Z,102057.72
2023-04-17T18:26:41.593Z,102066.56
2023-04-17T18:29:09.027Z,102064.84
2023-04-17T18:31:36.282Z,102066.06
2023-04-17T18:34:03.623Z,102065.78
2023-04-17T18:36:33.049Z,102066.56
2023-04-17T18:39:00.502Z,102066.38
2023-04-17T18:41:27.877Z,102069.84
2023-04-17T18:43:55.418Z,102074.41
2023-04-17T18:46:24.457Z,102075.19
2023-04-17T18:48:51.728Z,102075.38
2023-04-17T18:51:20.751Z,102073.63
2023-04-17T18:53:51.281Z,102079.88
2023-04-17T18:56:18.549Z,102075.38
2023-04-17T18:58:45.962Z,102082.44
2023-04-17T19:01:13.242Z,102077.94
2023-04-17T19:03:40.598Z,102079.00
2023-04-17T19:06:07.877Z,102079.88
2023-04-17T19:08:35.692Z,102077.09
2023-04-17T19:11:03.199Z,102079.00
2023-04-17T19:13:30.438Z,102078.06
2023-04-17T19:15:57.807Z,102073.63
2023-04-17T19:18:25.086Z,102073.56
2023-04-17T19:20:52.479Z,102084.34
2023-04-17T19:23:19.696Z,102073.63
2023-04-17T19:25:54.226Z,102075.38
2023-04-17T19:28:22.638Z,102075.38
2023-04-17T19:30:50.355Z,102072.69
2023-04-17T19:33:18.613Z,102077.19
2023-04-17T19:35:45.985Z,102078.13
2023-04-17T19:38:14.360Z,102077.19
2023-04-17T19:40:46.960Z,102074.53
2023-04-17T19:43:14.205Z,102074.59
2023-04-17T19:45:42.269Z,102074.69
2023-04-17T19:48:09.713Z,102067.53
2023-04-17T19:50:36.917Z,102072.03
2023-04-17T19:53:04.136Z,102073.81
2023-04-17T19:55:31.361Z,102066.72
2023-04-17T19:57:58.834Z,102064.16
2023-04-17T20:00:26.076Z,102066.66
2023-04-17T20:02:53.530Z,102076.50
2023-04-17T20:05:21.519Z,102081.28
2023-04-17T20:07:48.934Z,102078.66
2023-04-17T20:10:16.849Z,102079.56
2023-04-17T20:12:44.277Z,102078.59
2023-04-17T20:15:11.698Z,102070.91
2023-04-17T20:17:39.101Z,102069.19
2023-04-17T20:20:06.821Z,102070.06
2023-04-17T20:22:34.035Z,102069.38
2023-04-17T20:25:01.509Z,102067.44
2023-04-17T20:27:29.233Z,102072.41
2023-04-17T20:29:56.602Z,102073.25
2023-04-17T20:32:24.479Z,102064.94
2023-04-17T20:34:51.688Z,102060.47
2023-04-17T20:37:20.377Z,102050.69
2023-04-17T20:39:49.363Z,102059.00
2023-04-17T20:42:16.722Z,102057.19
2023-04-17T20:44:43.892Z,102066.09
2023-04-17T20:47:11.559Z,102058.06
2023-04-17T20:49:38.823Z,102054.53
2023-04-17T20:52:06.055Z,102052.63
2023-04-17T20:54:33.208Z,102050.88
2023-04-17T20:57:01.775Z,102054.91
2023-04-17T20:59:29.464Z,102060.19
2023-04-17T21:01:56.775Z,102062.78
2023-04-17T21:04:24.191Z,102057.91
2023-04-17T21:06:51.404Z,102058.56
2023-04-17T21:09:18.735Z,102067.56
2023-04-17T21:11:46.228Z,102065.91
2023-04-17T21:14:15.314Z,102069.56
2023-04-17T21:16:47.677Z,102067.97
2023-04-17T21:19:15.322Z,102067.72
2023-04-17T21:21:42.662Z,102068.19
2023-04-17T21:24:11.398Z,102064.03
2023-04-17T21:26:38.987Z,102072.31
2023-04-17T21:29:06.184Z,102074.91
2023-04-17T21:31:33.451Z,102074.75
2023-04-17T21:34:01.232Z,102075.88
2023-04-17T21:36:28.667Z,102071.53
2023-04-17T21:38:56.276Z,102074.41
2023-04-17T21:41:23.999Z,102073.59
2023-04-17T21:43:51.237Z,102068.94
2023-04-17T21:46:18.597Z,102069.72
2023-04-17T21:48:46.491Z,102071.78
2023-04-17T21:51:14.178Z,102076.28
2023-04-17T21:53:43.730Z,102069.09
2023-04-17T21:56:11.140Z,102074.28
2023-04-17T21:58:38.385Z,102076.09
2023-04-17T22:01:05.697Z,102073.25
2023-04-17T22:03:33.096Z,102072.84
2023-04-17T22:06:00.350Z,102082.09
2023-04-17T22:08:27.656Z,102081.41
2023-04-17T22:10:54.838Z,102082.31
2023-04-17T22:13:22.049Z,102078.88
2023-04-17T22:15:49.497Z,102084.81
2023-04-17T22:18:16.895Z,102091.31
2023-04-17T22:20:44.172Z,102084.25
2023-04-17T22:23:11.390Z,102080.00
2023-04-17T22:25:38.604Z,102084.31
2023-04-17T22:28:05.803Z,102083.56
2023-04-17T22:30:33.230Z,102084.41
2023-04-17T22:33:00.458Z,102090.78
2023-04-17T22:35:27.864Z,102088.28
2023-04-17T22:37:55.234Z,102089.06
2023-04-17T22:40:22.563Z,102082.84
2023-04-17T22:42:51.259Z,102090.28
2023-04-17T22:45:18.563Z,102087.59
2023-04-17T22:47:45.910Z,102091.31
2023-04-17T22:50:14.210Z,102096.06
2023-04-17T22:52:41.725Z,102088.97
2023-04-17T22:55:09.739Z,102088.81
2023-04-17T22:57:37.231Z,102085.34
2023-04-17T23:00:06.318Z,102100.47
2023-04-17T23:02:33.657Z,102095.97
2023-04-17T23:05:01.215Z,102101.56
2023-04-17T23:07:28.675Z,102099.00
2023-04-17T23:09:56.144Z,102104.25
2023-04-17T23:12:23.357Z,102106.00
2023-04-17T23:14:50.620Z,102108.69
2023-04-17T23:17:18.074Z,102107.88
2023-04-17T23:19:46.187Z,102113.00
2023-04-17T23:22:13.697Z,102113.88
2023-04-17T23:24:40.895Z,102106.06
2023-04-17T23:27:08.206Z,102109.59
2023-04-17T23:29:38.560Z,102110.56
2023-04-17T23:32:07.565Z,102111.19
2023-04-17T23:34:34.797Z,102109.59
2023-04-17T23:37:02.658Z,102111.25
2023-04-17T23:39:30.148Z,102111.34
2023-04-17T23:41:57.719Z,102110.41
2023-04-17T23:44:24.960Z,102111.25
2023-04-17T23:46:52.265Z,102106.16
2023-04-17T23:49:19.498Z,102111.53
2023-04-17T23:51:46.967Z,102113.94
2023-04-17T23:54:15.206Z,102115.56
2023-04-17T23:56:43.635Z,102106.00
2023-04-17T23:59:10.996Z,102106.00
